Foss, Oklahoma
Current Conditions -  °F | °C
As of 11:53 PM on Sunday 25 Jan 2015 (Local Time) from KCSM Reporting Station
Clear Clear  
Wind Chill: 32°   Ceiling: Unl
Heat Index: 36°   Visibility: 10mi
Dew Point: 28°   Wind: 5mph
Humidity: 73%   Direction: 260°W
Pressure: 30.22"   Gusts: NA
Location:  35.45°N, 99.17°W
Report Text: KCSM 260553Z AUTO 26004KT 10SM CLR 02/M02 A3022 RMK AO2 SLP233 T00221022 10106 20022 401500022 53008
Loading
Personal Weather Stations






























Interactive Weather Map New forecast layout! Learn more

10-Day Weather Forecast

Advertisements
Track Severe Weather on mobile